Boyd, Illinois
Current Conditions -  °F | °C
As of 7:55 PM on Monday 24 Nov 2014 (Local Time) from KENL Reporting Station
Overcast Overcast  
Wind Chill: 33°   Ceiling: 8000
Heat Index: 37°   Visibility: 10mi
Dew Point: 30°   Wind: 5mph
Humidity: 78%   Direction: 240°WSW
Pressure: 29.94"   Gusts: NA
Location:  38.4334°N, 88.9732°W
Report Text: KENL 250155Z AUTO 24004KT 10SM OVC080 03/M01 A2994 RMK AO2 T00251010
Loading
Personal Weather Stations






























Interactive Weather Map New forecast layout! Learn more

10-Day Weather Forecast

Advertisements
Track Severe Weather on mobile